sensor_id;sensor_type;location;lat;lon;timestamp;P1;durP1;ratioP1;P2;durP2;ratioP2
22660;SDS011;11497;52.222;21.246;2023-06-22T00:01:22;41.30;;;36.38;;
22660;SDS011;11497;52.222;21.246;2023-06-22T00:03:51;45.95;;;38.45;;
22660;SDS011;11497;52.222;21.246;2023-06-22T00:06:19;47.40;;;38.22;;
22660;SDS011;11497;52.222;21.246;2023-06-22T00:08:47;47.28;;;39.08;;
22660;SDS011;11497;52.222;21.246;2023-06-22T00:11:14;46.33;;;40.10;;
22660;SDS011;11497;52.222;21.246;2023-06-22T00:13:42;46.78;;;41.22;;
22660;SDS011;11497;52.222;21.246;2023-06-22T00:16:10;45.65;;;40.70;;
22660;SDS011;11497;52.222;21.246;2023-06-22T00:18:38;43.72;;;39.00;;
22660;SDS011;11497;52.222;21.246;2023-06-22T00:21:05;46.10;;;39.70;;
22660;SDS011;11497;52.222;21.246;2023-06-22T00:23:33;42.97;;;38.33;;
22660;SDS011;11497;52.222;21.246;2023-06-22T00:26:01;48.90;;;40.90;;
22660;SDS011;11497;52.222;21.246;2023-06-22T00:28:29;47.85;;;40.88;;
22660;SDS011;11497;52.222;21.246;2023-06-22T00:30:57;47.33;;;40.88;;
22660;SDS011;11497;52.222;21.246;2023-06-22T00:33:25;48.47;;;41.50;;
22660;SDS011;11497;52.222;21.246;2023-06-22T00:35:53;48.92;;;41.72;;
22660;SDS011;11497;52.222;21.246;2023-06-22T00:38:20;50.47;;;42.00;;
22660;SDS011;11497;52.222;21.246;2023-06-22T00:40:48;48.85;;;41.33;;
22660;SDS011;11497;52.222;21.246;2023-06-22T00:43:16;49.17;;;43.03;;
22660;SDS011;11497;52.222;21.246;2023-06-22T00:45:44;49.13;;;42.95;;
22660;SDS011;11497;52.222;21.246;2023-06-22T00:48:12;54.13;;;45.70;;
22660;SDS011;11497;52.222;21.246;2023-06-22T00:50:40;49.78;;;44.20;;
22660;SDS011;11497;52.222;21.246;2023-06-22T00:53:09;53.70;;;44.33;;
22660;SDS011;11497;52.222;21.246;2023-06-22T00:55:41;50.28;;;43.80;;
22660;SDS011;11497;52.222;21.246;2023-06-22T00:58:13;50.65;;;43.97;;
22660;SDS011;11497;52.222;21.246;2023-06-22T01:00:41;51.45;;;45.78;;
22660;SDS011;11497;52.222;21.246;2023-06-22T01:03:09;55.55;;;47.42;;
22660;SDS011;11497;52.222;21.246;2023-06-22T01:05:38;54.00;;;46.45;;
22660;SDS011;11497;52.222;21.246;2023-06-22T01:08:23;54.75;;;47.85;;
22660;SDS011;11497;52.222;21.246;2023-06-22T01:11:17;58.78;;;47.58;;
22660;SDS011;11497;52.222;21.246;2023-06-22T01:14:03;59.20;;;48.50;;
22660;SDS011;11497;52.222;21.246;2023-06-22T01:16:40;59.47;;;48.60;;
22660;SDS011;11497;52.222;21.246;2023-06-22T01:21:55;57.05;;;47.97;;
22660;SDS011;11497;52.222;21.246;2023-06-22T01:24:38;60.80;;;49.20;;
22660;SDS011;11497;52.222;21.246;2023-06-22T01:29:52;60.58;;;50.53;;
22660;SDS011;11497;52.222;21.246;2023-06-22T01:32:35;59.78;;;49.25;;
22660;SDS011;11497;52.222;21.246;2023-06-22T01:35:05;57.80;;;47.97;;
22660;SDS011;11497;52.222;21.246;2023-06-22T01:37:35;55.88;;;48.30;;
22660;SDS011;11497;52.222;21.246;2023-06-22T01:40:04;57.30;;;49.45;;
22660;SDS011;11497;52.222;21.246;2023-06-22T01:42:35;66.28;;;51.22;;
22660;SDS011;11497;52.222;21.246;2023-06-22T01:45:06;60.28;;;49.13;;
22660;SDS011;11497;52.222;21.246;2023-06-22T01:47:37;59.80;;;50.55;;
22660;SDS011;11497;52.222;21.246;2023-06-22T01:50:05;64.45;;;51.75;;
22660;SDS011;11497;52.222;21.246;2023-06-22T01:52:34;58.88;;;49.33;;
22660;SDS011;11497;52.222;21.246;2023-06-22T01:55:01;62.55;;;50.72;;
22660;SDS011;11497;52.222;21.246;2023-06-22T01:57:31;66.03;;;53.22;;
22660;SDS011;11497;52.222;21.246;2023-06-22T02:00:00;65.30;;;53.22;;
22660;SDS011;11497;52.222;21.246;2023-06-22T02:05:48;62.80;;;51.03;;
22660;SDS011;11497;52.222;21.246;2023-06-22T02:08:22;63.97;;;52.88;;
22660;SDS011;11497;52.222;21.246;2023-06-22T02:10:55;64.93;;;53.60;;
22660;SDS011;11497;52.222;21.246;2023-06-22T02:13:24;66.97;;;53.05;;
22660;SDS011;11497;52.222;21.246;2023-06-22T02:15:53;63.80;;;52.97;;
22660;SDS011;11497;52.222;21.246;2023-06-22T02:18:21;68.20;;;54.58;;
22660;SDS011;11497;52.222;21.246;2023-06-22T02:20:49;67.53;;;54.22;;
22660;SDS011;11497;52.222;21.246;2023-06-22T02:23:17;67.70;;;52.28;;
22660;SDS011;11497;52.222;21.246;2023-06-22T02:25:44;66.03;;;53.33;;
22660;SDS011;11497;52.222;21.246;2023-06-22T02:28:12;61.92;;;51.05;;
22660;SDS011;11497;52.222;21.246;2023-06-22T02:30:40;64.38;;;51.10;;
22660;SDS011;11497;52.222;21.246;2023-06-22T02:33:08;65.60;;;51.88;;
22660;SDS011;11497;52.222;21.246;2023-06-22T02:35:36;63.38;;;51.67;;
22660;SDS011;11497;52.222;21.246;2023-06-22T02:38:04;64.47;;;51.25;;
22660;SDS011;11497;52.222;21.246;2023-06-22T02:40:32;60.50;;;51.53;;
22660;SDS011;11497;52.222;21.246;2023-06-22T02:42:59;61.20;;;49.75;;
22660;SDS011;11497;52.222;21.246;2023-06-22T02:45:30;66.05;;;51.50;;
22660;SDS011;11497;52.222;21.246;2023-06-22T02:47:58;61.33;;;50.70;;
22660;SDS011;11497;52.222;21.246;2023-06-22T02:50:26;59.78;;;50.53;;
22660;SDS011;11497;52.222;21.246;2023-06-22T02:52:54;58.03;;;49.25;;
22660;SDS011;11497;52.222;21.246;2023-06-22T02:55:22;61.85;;;49.75;;
22660;SDS011;11497;52.222;21.246;2023-06-22T02:57:55;65.38;;;49.15;;
22660;SDS011;11497;52.222;21.246;2023-06-22T03:00:24;62.72;;;48.97;;
22660;SDS011;11497;52.222;21.246;2023-06-22T03:02:57;56.50;;;48.30;;
22660;SDS011;11497;52.222;21.246;2023-06-22T03:05:25;59.53;;;48.30;;
22660;SDS011;11497;52.222;21.246;2023-06-22T03:07:55;58.22;;;48.85;;
22660;SDS011;11497;52.222;21.246;2023-06-22T03:10:23;60.30;;;47.50;;
22660;SDS011;11497;52.222;21.246;2023-06-22T03:12:51;63.60;;;48.45;;
22660;SDS011;11497;52.222;21.246;2023-06-22T03:15:18;60.22;;;49.17;;
22660;SDS011;11497;52.222;21.246;2023-06-22T03:17:50;55.88;;;48.10;;
22660;SDS011;11497;52.222;21.246;2023-06-22T03:20:18;58.88;;;47.08;;
22660;SDS011;11497;52.222;21.246;2023-06-22T03:22:46;57.28;;;46.88;;
22660;SDS011;11497;52.222;21.246;2023-06-22T03:25:15;57.90;;;48.97;;
22660;SDS011;11497;52.222;21.246;2023-06-22T03:27:46;55.67;;;45.75;;
22660;SDS011;11497;52.222;21.246;2023-06-22T03:30:14;55.17;;;47.20;;
22660;SDS011;11497;52.222;21.246;2023-06-22T03:32:42;55.97;;;47.13;;
22660;SDS011;11497;52.222;21.246;2023-06-22T03:35:10;58.13;;;46.80;;
22660;SDS011;11497;52.222;21.246;2023-06-22T03:37:40;54.13;;;46.67;;
22660;SDS011;11497;52.222;21.246;2023-06-22T03:40:08;56.53;;;48.00;;
22660;SDS011;11497;52.222;21.246;2023-06-22T03:42:37;53.83;;;45.83;;
22660;SDS011;11497;52.222;21.246;2023-06-22T03:45:04;54.33;;;45.05;;
22660;SDS011;11497;52.222;21.246;2023-06-22T03:47:33;54.55;;;45.42;;
22660;SDS011;11497;52.222;21.246;2023-06-22T03:50:01;56.67;;;47.05;;
22660;SDS011;11497;52.222;21.246;2023-06-22T03:52:30;56.90;;;48.00;;
22660;SDS011;11497;52.222;21.246;2023-06-22T03:54:58;61.95;;;47.72;;
22660;SDS011;11497;52.222;21.246;2023-06-22T03:57:26;59.67;;;48.08;;
22660;SDS011;11497;52.222;21.246;2023-06-22T03:59:56;59.50;;;48.75;;
22660;SDS011;11497;52.222;21.246;2023-06-22T04:02:24;61.13;;;48.17;;
22660;SDS011;11497;52.222;21.246;2023-06-22T04:04:52;57.90;;;47.42;;
22660;SDS011;11497;52.222;21.246;2023-06-22T04:07:21;57.17;;;47.53;;
22660;SDS011;11497;52.222;21.246;2023-06-22T04:09:48;59.08;;;47.40;;
22660;SDS011;11497;52.222;21.246;2023-06-22T04:12:16;58.78;;;47.88;;
22660;SDS011;11497;52.222;21.246;2023-06-22T04:14:44;58.65;;;46.25;;
22660;SDS011;11497;52.222;21.246;2023-06-22T04:17:12;56.97;;;46.28;;
22660;SDS011;11497;52.222;21.246;2023-06-22T04:19:40;60.28;;;47.70;;
22660;SDS011;11497;52.222;21.246;2023-06-22T04:22:08;56.03;;;46.38;;
22660;SDS011;11497;52.222;21.246;2023-06-22T04:24:37;56.83;;;46.78;;
22660;SDS011;11497;52.222;21.246;2023-06-22T04:27:05;57.78;;;46.08;;
22660;SDS011;11497;52.222;21.246;2023-06-22T04:29:32;56.97;;;44.53;;
22660;SDS011;11497;52.222;21.246;2023-06-22T04:32:00;57.17;;;45.20;;
22660;SDS011;11497;52.222;21.246;2023-06-22T04:34:32;56.13;;;43.40;;
22660;SDS011;11497;52.222;21.246;2023-06-22T04:37:00;56.50;;;45.25;;
22660;SDS011;11497;52.222;21.246;2023-06-22T04:39:28;51.17;;;42.75;;
22660;SDS011;11497;52.222;21.246;2023-06-22T04:41:56;53.53;;;41.83;;
22660;SDS011;11497;52.222;21.246;2023-06-22T04:44:27;55.08;;;42.45;;
22660;SDS011;11497;52.222;21.246;2023-06-22T04:46:58;49.47;;;41.25;;
22660;SDS011;11497;52.222;21.246;2023-06-22T04:49:30;52.60;;;41.45;;
22660;SDS011;11497;52.222;21.246;2023-06-22T04:52:05;52.55;;;42.10;;
22660;SDS011;11497;52.222;21.246;2023-06-22T04:54:34;52.35;;;41.10;;
22660;SDS011;11497;52.222;21.246;2023-06-22T04:57:05;49.60;;;42.10;;
22660;SDS011;11497;52.222;21.246;2023-06-22T04:59:37;51.07;;;41.33;;
22660;SDS011;11497;52.222;21.246;2023-06-22T05:02:09;48.17;;;39.40;;
22660;SDS011;11497;52.222;21.246;2023-06-22T05:04:37;47.25;;;39.45;;
22660;SDS011;11497;52.222;21.246;2023-06-22T05:07:08;45.72;;;37.83;;
22660;SDS011;11497;52.222;21.246;2023-06-22T05:09:36;44.20;;;37.83;;
22660;SDS011;11497;52.222;21.246;2023-06-22T05:12:04;49.92;;;39.50;;
22660;SDS011;11497;52.222;21.246;2023-06-22T05:14:36;46.70;;;37.30;;
22660;SDS011;11497;52.222;21.246;2023-06-22T05:17:04;44.95;;;37.05;;
22660;SDS011;11497;52.222;21.246;2023-06-22T05:19:41;43.03;;;35.28;;
22660;SDS011;11497;52.222;21.246;2023-06-22T05:22:12;52.58;;;38.58;;
22660;SDS011;11497;52.222;21.246;2023-06-22T05:24:39;51.15;;;35.95;;
22660;SDS011;11497;52.222;21.246;2023-06-22T05:27:08;45.28;;;37.25;;
22660;SDS011;11497;52.222;21.246;2023-06-22T05:29:36;45.95;;;36.60;;
22660;SDS011;11497;52.222;21.246;2023-06-22T05:32:04;43.92;;;37.35;;
22660;SDS011;11497;52.222;21.246;2023-06-22T05:34:33;49.58;;;38.83;;
22660;SDS011;11497;52.222;21.246;2023-06-22T05:37:01;46.97;;;37.83;;
22660;SDS011;11497;52.222;21.246;2023-06-22T05:39:29;50.22;;;38.70;;
22660;SDS011;11497;52.222;21.246;2023-06-22T05:41:57;47.03;;;38.13;;
22660;SDS011;11497;52.222;21.246;2023-06-22T05:44:24;47.92;;;39.72;;
22660;SDS011;11497;52.222;21.246;2023-06-22T05:46:52;45.30;;;37.92;;
22660;SDS011;11497;52.222;21.246;2023-06-22T05:49:20;43.70;;;37.72;;
22660;SDS011;11497;52.222;21.246;2023-06-22T05:51:49;47.97;;;38.05;;
22660;SDS011;11497;52.222;21.246;2023-06-22T05:54:17;45.45;;;36.60;;
22660;SDS011;11497;52.222;21.246;2023-06-22T05:56:45;44.42;;;37.35;;
22660;SDS011;11497;52.222;21.246;2023-06-22T05:59:12;46.58;;;37.08;;
22660;SDS011;11497;52.222;21.246;2023-06-22T06:01:40;41.47;;;36.92;;
22660;SDS011;11497;52.222;21.246;2023-06-22T06:04:08;46.72;;;37.30;;
22660;SDS011;11497;52.222;21.246;2023-06-22T06:06:36;47.20;;;36.58;;
22660;SDS011;11497;52.222;21.246;2023-06-22T06:09:04;41.38;;;35.97;;
22660;SDS011;11497;52.222;21.246;2023-06-22T06:11:32;44.95;;;36.38;;
22660;SDS011;11497;52.222;21.246;2023-06-22T06:14:00;45.70;;;36.42;;
22660;SDS011;11497;52.222;21.246;2023-06-22T06:16:28;46.63;;;36.30;;
22660;SDS011;11497;52.222;21.246;2023-06-22T06:18:55;41.55;;;34.88;;
22660;SDS011;11497;52.222;21.246;2023-06-22T06:21:25;44.92;;;35.63;;
22660;SDS011;11497;52.222;21.246;2023-06-22T06:23:56;46.42;;;34.78;;
22660;SDS011;11497;52.222;21.246;2023-06-22T06:26:25;40.40;;;34.47;;
22660;SDS011;11497;52.222;21.246;2023-06-22T06:28:59;43.22;;;33.72;;
22660;SDS011;11497;52.222;21.246;2023-06-22T06:31:29;42.33;;;33.00;;
22660;SDS011;11497;52.222;21.246;2023-06-22T06:33:57;41.38;;;33.80;;
22660;SDS011;11497;52.222;21.246;2023-06-22T06:36:24;41.53;;;32.65;;
22660;SDS011;11497;52.222;21.246;2023-06-22T06:38:52;41.83;;;33.28;;
22660;SDS011;11497;52.222;21.246;2023-06-22T06:41:20;42.40;;;32.53;;
22660;SDS011;11497;52.222;21.246;2023-06-22T06:43:48;40.42;;;32.65;;
22660;SDS011;11497;52.222;21.246;2023-06-22T06:46:16;41.97;;;32.13;;
22660;SDS011;11497;52.222;21.246;2023-06-22T06:48:45;36.75;;;31.40;;
22660;SDS011;11497;52.222;21.246;2023-06-22T06:51:13;40.75;;;32.05;;
22660;SDS011;11497;52.222;21.246;2023-06-22T06:53:41;41.83;;;32.72;;
22660;SDS011;11497;52.222;21.246;2023-06-22T06:56:09;42.78;;;33.35;;
22660;SDS011;11497;52.222;21.246;2023-06-22T06:58:40;42.25;;;31.45;;
22660;SDS011;11497;52.222;21.246;2023-06-22T07:01:12;41.47;;;30.13;;
22660;SDS011;11497;52.222;21.246;2023-06-22T07:03:40;43.10;;;29.58;;
22660;SDS011;11497;52.222;21.246;2023-06-22T07:06:08;37.38;;;30.92;;
22660;SDS011;11497;52.222;21.246;2023-06-22T07:08:36;35.17;;;29.38;;
22660;SDS011;11497;52.222;21.246;2023-06-22T07:11:04;36.40;;;28.75;;
22660;SDS011;11497;52.222;21.246;2023-06-22T07:13:31;35.53;;;28.25;;
22660;SDS011;11497;52.222;21.246;2023-06-22T07:16:00;33.22;;;28.23;;
22660;SDS011;11497;52.222;21.246;2023-06-22T07:18:28;34.05;;;29.30;;
22660;SDS011;11497;52.222;21.246;2023-06-22T07:20:56;35.45;;;28.17;;
22660;SDS011;11497;52.222;21.246;2023-06-22T07:23:23;31.02;;;26.80;;
22660;SDS011;11497;52.222;21.246;2023-06-22T07:25:51;32.45;;;27.77;;
22660;SDS011;11497;52.222;21.246;2023-06-22T07:28:19;31.13;;;26.92;;
22660;SDS011;11497;52.222;21.246;2023-06-22T07:30:47;34.35;;;27.67;;
22660;SDS011;11497;52.222;21.246;2023-06-22T07:33:14;29.77;;;26.55;;
22660;SDS011;11497;52.222;21.246;2023-06-22T07:35:44;28.48;;;24.23;;
22660;SDS011;11497;52.222;21.246;2023-06-22T07:38:13;26.80;;;24.00;;
22660;SDS011;11497;52.222;21.246;2023-06-22T07:40:42;26.15;;;23.45;;
22660;SDS011;11497;52.222;21.246;2023-06-22T07:43:10;30.30;;;23.48;;
22660;SDS011;11497;52.222;21.246;2023-06-22T07:45:38;25.38;;;22.65;;
22660;SDS011;11497;52.222;21.246;2023-06-22T07:48:07;26.67;;;22.25;;
22660;SDS011;11497;52.222;21.246;2023-06-22T07:50:35;26.08;;;21.13;;
22660;SDS011;11497;52.222;21.246;2023-06-22T07:53:02;22.92;;;20.42;;
22660;SDS011;11497;52.222;21.246;2023-06-22T07:55:30;23.88;;;19.75;;
22660;SDS011;11497;52.222;21.246;2023-06-22T07:57:58;23.02;;;18.00;;
22660;SDS011;11497;52.222;21.246;2023-06-22T08:00:26;19.92;;;17.67;;
22660;SDS011;11497;52.222;21.246;2023-06-22T08:02:54;23.15;;;16.63;;
22660;SDS011;11497;52.222;21.246;2023-06-22T08:05:23;18.92;;;15.95;;
22660;SDS011;11497;52.222;21.246;2023-06-22T08:07:50;19.77;;;16.40;;
22660;SDS011;11497;52.222;21.246;2023-06-22T08:10:20;21.15;;;13.93;;
22660;SDS011;11497;52.222;21.246;2023-06-22T08:12:48;18.45;;;14.70;;
22660;SDS011;11497;52.222;21.246;2023-06-22T08:15:16;18.27;;;13.75;;
22660;SDS011;11497;52.222;21.246;2023-06-22T08:17:43;16.13;;;12.13;;
22660;SDS011;11497;52.222;21.246;2023-06-22T08:20:13;14.50;;;12.00;;
22660;SDS011;11497;52.222;21.246;2023-06-22T08:22:41;15.80;;;12.75;;
22660;SDS011;11497;52.222;21.246;2023-06-22T08:25:10;12.27;;;11.07;;
22660;SDS011;11497;52.222;21.246;2023-06-22T08:27:38;11.82;;;10.63;;
22660;SDS011;11497;52.222;21.246;2023-06-22T08:30:07;14.00;;;10.45;;
22660;SDS011;11497;52.222;21.246;2023-06-22T08:32:37;10.48;;;9.48;;
22660;SDS011;11497;52.222;21.246;2023-06-22T08:35:05;11.57;;;9.32;;
22660;SDS011;11497;52.222;21.246;2023-06-22T08:37:35;9.43;;;7.90;;
22660;SDS011;11497;52.222;21.246;2023-06-22T08:40:07;8.60;;;7.38;;
22660;SDS011;11497;52.222;21.246;2023-06-22T08:42:36;12.32;;;7.68;;
22660;SDS011;11497;52.222;21.246;2023-06-22T08:45:07;8.00;;;7.10;;
22660;SDS011;11497;52.222;21.246;2023-06-22T08:47:35;9.57;;;6.70;;
22660;SDS011;11497;52.222;21.246;2023-06-22T08:50:03;9.98;;;6.85;;
22660;SDS011;11497;52.222;21.246;2023-06-22T08:52:33;12.73;;;7.13;;
22660;SDS011;11497;52.222;21.246;2023-06-22T08:55:01;9.35;;;6.18;;
22660;SDS011;11497;52.222;21.246;2023-06-22T08:57:28;10.70;;;6.60;;
22660;SDS011;11497;52.222;21.246;2023-06-22T08:59:57;9.65;;;6.50;;
22660;SDS011;11497;52.222;21.246;2023-06-22T09:02:28;8.20;;;5.68;;
22660;SDS011;11497;52.222;21.246;2023-06-22T09:04:59;9.75;;;6.07;;
22660;SDS011;11497;52.222;21.246;2023-06-22T09:07:30;6.95;;;5.93;;
22660;SDS011;11497;52.222;21.246;2023-06-22T09:09:58;9.43;;;6.30;;
22660;SDS011;11497;52.222;21.246;2023-06-22T09:12:29;11.48;;;6.18;;
22660;SDS011;11497;52.222;21.246;2023-06-22T09:14:57;9.60;;;6.10;;
22660;SDS011;11497;52.222;21.246;2023-06-22T09:17:29;8.63;;;6.32;;
22660;SDS011;11497;52.222;21.246;2023-06-22T09:19:57;8.02;;;5.70;;
22660;SDS011;11497;52.222;21.246;2023-06-22T09:22:25;8.60;;;5.30;;
22660;SDS011;11497;52.222;21.246;2023-06-22T09:24:56;8.50;;;5.43;;
22660;SDS011;11497;52.222;21.246;2023-06-22T09:27:23;8.95;;;5.40;;
22660;SDS011;11497;52.222;21.246;2023-06-22T09:29:51;8.05;;;5.07;;
22660;SDS011;11497;52.222;21.246;2023-06-22T09:32:19;9.35;;;4.82;;
22660;SDS011;11497;52.222;21.246;2023-06-22T09:34:47;11.13;;;4.80;;
22660;SDS011;11497;52.222;21.246;2023-06-22T09:37:15;10.38;;;5.28;;
22660;SDS011;11497;52.222;21.246;2023-06-22T09:39:42;9.32;;;5.20;;
22660;SDS011;11497;52.222;21.246;2023-06-22T09:42:10;7.70;;;4.97;;
22660;SDS011;11497;52.222;21.246;2023-06-22T09:44:40;7.78;;;4.88;;
22660;SDS011;11497;52.222;21.246;2023-06-22T09:47:07;6.97;;;4.32;;
22660;SDS011;11497;52.222;21.246;2023-06-22T09:49:35;4.47;;;4.05;;
22660;SDS011;11497;52.222;21.246;2023-06-22T09:52:14;7.35;;;5.53;;
22660;SDS011;11497;52.222;21.246;2023-06-22T09:54:42;9.85;;;4.80;;
22660;SDS011;11497;52.222;21.246;2023-06-22T09:57:10;4.65;;;3.83;;
22660;SDS011;11497;52.222;21.246;2023-06-22T09:59:38;5.70;;;3.55;;
22660;SDS011;11497;52.222;21.246;2023-06-22T10:02:09;11.73;;;3.75;;
22660;SDS011;11497;52.222;21.246;2023-06-22T10:04:37;8.85;;;3.70;;
22660;SDS011;11497;52.222;21.246;2023-06-22T10:07:06;7.40;;;3.13;;
22660;SDS011;11497;52.222;21.246;2023-06-22T10:09:34;3.80;;;3.20;;
22660;SDS011;11497;52.222;21.246;2023-06-22T10:12:02;5.15;;;3.13;;
22660;SDS011;11497;52.222;21.246;2023-06-22T10:14:31;8.60;;;3.67;;
22660;SDS011;11497;52.222;21.246;2023-06-22T10:16:58;5.95;;;3.90;;
22660;SDS011;11497;52.222;21.246;2023-06-22T10:19:26;6.18;;;3.25;;
22660;SDS011;11497;52.222;21.246;2023-06-22T10:21:54;5.10;;;3.60;;
22660;SDS011;11497;52.222;21.246;2023-06-22T10:24:22;7.65;;;3.67;;
22660;SDS011;11497;52.222;21.246;2023-06-22T10:26:50;6.03;;;3.58;;
22660;SDS011;11497;52.222;21.246;2023-06-22T10:29:18;7.68;;;4.53;;
22660;SDS011;11497;52.222;21.246;2023-06-22T10:31:47;9.57;;;3.80;;
22660;SDS011;11497;52.222;21.246;2023-06-22T10:34:14;6.68;;;4.07;;
22660;SDS011;11497;52.222;21.246;2023-06-22T10:36:42;7.03;;;4.00;;
22660;SDS011;11497;52.222;21.246;2023-06-22T10:39:13;7.63;;;4.43;;
22660;SDS011;11497;52.222;21.246;2023-06-22T10:41:41;6.50;;;4.93;;
22660;SDS011;11497;52.222;21.246;2023-06-22T10:44:09;8.50;;;4.40;;
22660;SDS011;11497;52.222;21.246;2023-06-22T10:46:37;10.70;;;4.68;;
22660;SDS011;11497;52.222;21.246;2023-06-22T10:49:05;10.60;;;4.97;;
22660;SDS011;11497;52.222;21.246;2023-06-22T10:51:33;8.75;;;4.60;;
22660;SDS011;11497;52.222;21.246;2023-06-22T10:54:01;9.20;;;4.97;;
22660;SDS011;11497;52.222;21.246;2023-06-22T10:56:30;5.55;;;4.53;;
22660;SDS011;11497;52.222;21.246;2023-06-22T10:59:00;7.30;;;4.05;;
22660;SDS011;11497;52.222;21.246;2023-06-22T11:01:28;6.28;;;4.05;;
22660;SDS011;11497;52.222;21.246;2023-06-22T11:04:02;9.60;;;4.68;;
22660;SDS011;11497;52.222;21.246;2023-06-22T11:06:31;6.78;;;4.70;;
22660;SDS011;11497;52.222;21.246;2023-06-22T11:08:59;10.35;;;5.40;;
22660;SDS011;11497;52.222;21.246;2023-06-22T11:11:47;8.50;;;4.63;;
22660;SDS011;11497;52.222;21.246;2023-06-22T11:14:17;11.48;;;5.38;;
22660;SDS011;11497;52.222;21.246;2023-06-22T11:16:44;11.57;;;5.10;;
22660;SDS011;11497;52.222;21.246;2023-06-22T11:19:16;10.60;;;5.40;;
22660;SDS011;11497;52.222;21.246;2023-06-22T11:21:44;7.10;;;4.78;;
22660;SDS011;11497;52.222;21.246;2023-06-22T11:24:12;10.32;;;5.13;;
22660;SDS011;11497;52.222;21.246;2023-06-22T11:26:39;7.50;;;5.85;;
22660;SDS011;11497;52.222;21.246;2023-06-22T11:29:07;8.18;;;5.75;;
22660;SDS011;11497;52.222;21.246;2023-06-22T11:31:46;9.88;;;5.47;;
22660;SDS011;11497;52.222;21.246;2023-06-22T11:34:14;7.32;;;5.10;;
22660;SDS011;11497;52.222;21.246;2023-06-22T11:36:42;14.10;;;5.70;;
22660;SDS011;11497;52.222;21.246;2023-06-22T11:39:11;8.80;;;5.60;;
22660;SDS011;11497;52.222;21.246;2023-06-22T11:41:41;8.73;;;5.30;;
22660;SDS011;11497;52.222;21.246;2023-06-22T11:44:09;9.73;;;5.18;;
22660;SDS011;11497;52.222;21.246;2023-06-22T11:46:36;7.82;;;5.63;;
22660;SDS011;11497;52.222;21.246;2023-06-22T11:49:04;7.60;;;5.35;;
22660;SDS011;11497;52.222;21.246;2023-06-22T11:51:32;9.15;;;5.57;;
22660;SDS011;11497;52.222;21.246;2023-06-22T11:54:00;9.02;;;5.35;;
22660;SDS011;11497;52.222;21.246;2023-06-22T11:56:28;6.93;;;5.40;;
22660;SDS011;11497;52.222;21.246;2023-06-22T11:58:56;7.25;;;5.40;;
22660;SDS011;11497;52.222;21.246;2023-06-22T12:01:24;8.80;;;5.65;;
22660;SDS011;11497;52.222;21.246;2023-06-22T12:03:52;8.07;;;5.60;;
22660;SDS011;11497;52.222;21.246;2023-06-22T12:06:20;8.52;;;5.85;;
22660;SDS011;11497;52.222;21.246;2023-06-22T12:08:48;10.13;;;5.53;;
22660;SDS011;11497;52.222;21.246;2023-06-22T12:11:16;10.15;;;5.32;;
22660;SDS011;11497;52.222;21.246;2023-06-22T12:13:43;7.25;;;5.10;;
22660;SDS011;11497;52.222;21.246;2023-06-22T12:16:11;7.78;;;5.50;;
22660;SDS011;11497;52.222;21.246;2023-06-22T12:18:39;7.30;;;5.75;;
22660;SDS011;11497;52.222;21.246;2023-06-22T12:21:07;9.00;;;5.97;;
22660;SDS011;11497;52.222;21.246;2023-06-22T12:23:35;9.80;;;5.80;;
22660;SDS011;11497;52.222;21.246;2023-06-22T12:26:02;8.23;;;6.00;;
22660;SDS011;11497;52.222;21.246;2023-06-22T12:28:30;12.43;;;5.53;;
22660;SDS011;11497;52.222;21.246;2023-06-22T12:30:58;6.20;;;5.10;;
22660;SDS011;11497;52.222;21.246;2023-06-22T12:33:26;8.70;;;5.40;;
22660;SDS011;11497;52.222;21.246;2023-06-22T12:35:53;7.43;;;5.50;;
22660;SDS011;11497;52.222;21.246;2023-06-22T12:38:21;11.88;;;5.40;;
22660;SDS011;11497;52.222;21.246;2023-06-22T12:40:51;9.35;;;5.55;;
22660;SDS011;11497;52.222;21.246;2023-06-22T12:43:19;7.63;;;5.20;;
22660;SDS011;11497;52.222;21.246;2023-06-22T12:45:47;6.70;;;5.50;;
22660;SDS011;11497;52.222;21.246;2023-06-22T12:48:15;7.20;;;5.35;;
22660;SDS011;11497;52.222;21.246;2023-06-22T12:50:43;10.35;;;5.28;;
22660;SDS011;11497;52.222;21.246;2023-06-22T12:53:11;6.43;;;5.13;;
22660;SDS011;11497;52.222;21.246;2023-06-22T12:55:39;7.68;;;5.57;;
22660;SDS011;11497;52.222;21.246;2023-06-22T12:58:07;7.75;;;5.72;;
22660;SDS011;11497;52.222;21.246;2023-06-22T13:00:34;11.30;;;5.68;;
22660;SDS011;11497;52.222;21.246;2023-06-22T13:03:02;9.25;;;5.85;;
22660;SDS011;11497;52.222;21.246;2023-06-22T13:05:30;8.55;;;5.60;;
22660;SDS011;11497;52.222;21.246;2023-06-22T13:08:01;12.52;;;5.80;;
22660;SDS011;11497;52.222;21.246;2023-06-22T13:10:29;8.10;;;5.93;;
22660;SDS011;11497;52.222;21.246;2023-06-22T13:12:58;15.35;;;5.60;;
22660;SDS011;11497;52.222;21.246;2023-06-22T13:15:28;12.13;;;5.70;;
22660;SDS011;11497;52.222;21.246;2023-06-22T13:17:56;7.35;;;5.80;;
22660;SDS011;11497;52.222;21.246;2023-06-22T13:20:24;7.97;;;5.97;;
22660;SDS011;11497;52.222;21.246;2023-06-22T13:22:52;8.65;;;6.70;;
22660;SDS011;11497;52.222;21.246;2023-06-22T13:25:20;9.07;;;6.03;;
22660;SDS011;11497;52.222;21.246;2023-06-22T13:27:50;8.00;;;5.53;;
22660;SDS011;11497;52.222;21.246;2023-06-22T13:30:18;9.10;;;5.68;;
22660;SDS011;11497;52.222;21.246;2023-06-22T13:32:46;7.97;;;6.10;;
22660;SDS011;11497;52.222;21.246;2023-06-22T13:35:14;8.63;;;5.85;;
22660;SDS011;11497;52.222;21.246;2023-06-22T13:37:42;7.80;;;6.22;;
22660;SDS011;11497;52.222;21.246;2023-06-22T13:40:10;7.90;;;5.43;;
22660;SDS011;11497;52.222;21.246;2023-06-22T13:42:38;8.90;;;5.60;;
22660;SDS011;11497;52.222;21.246;2023-06-22T13:45:06;9.65;;;6.10;;
22660;SDS011;11497;52.222;21.246;2023-06-22T13:47:34;9.93;;;5.88;;
22660;SDS011;11497;52.222;21.246;2023-06-22T13:50:02;9.82;;;6.00;;
22660;SDS011;11497;52.222;21.246;2023-06-22T13:52:30;8.55;;;5.47;;
22660;SDS011;11497;52.222;21.246;2023-06-22T13:54:58;6.38;;;5.70;;
22660;SDS011;11497;52.222;21.246;2023-06-22T13:57:26;6.70;;;5.97;;
22660;SDS011;11497;52.222;21.246;2023-06-22T13:59:54;12.88;;;7.20;;
22660;SDS011;11497;52.222;21.246;2023-06-22T14:02:21;11.52;;;7.40;;
22660;SDS011;11497;52.222;21.246;2023-06-22T14:04:49;8.27;;;7.00;;
22660;SDS011;11497;52.222;21.246;2023-06-22T14:07:17;9.95;;;7.18;;
22660;SDS011;11497;52.222;21.246;2023-06-22T14:09:48;8.65;;;7.10;;
22660;SDS011;11497;52.222;21.246;2023-06-22T14:12:16;10.65;;;6.88;;
22660;SDS011;11497;52.222;21.246;2023-06-22T14:14:44;10.88;;;6.95;;
22660;SDS011;11497;52.222;21.246;2023-06-22T14:17:12;9.52;;;6.85;;
22660;SDS011;11497;52.222;21.246;2023-06-22T14:19:40;31.52;;;10.27;;
22660;SDS011;11497;52.222;21.246;2023-06-22T14:22:08;24.67;;;10.80;;
22660;SDS011;11497;52.222;21.246;2023-06-22T14:24:35;10.10;;;7.85;;
22660;SDS011;11497;52.222;21.246;2023-06-22T14:27:03;8.75;;;7.28;;
22660;SDS011;11497;52.222;21.246;2023-06-22T14:29:34;34.60;;;9.63;;
22660;SDS011;11497;52.222;21.246;2023-06-22T14:32:02;17.65;;;9.27;;
22660;SDS011;11497;52.222;21.246;2023-06-22T14:34:33;11.52;;;10.00;;
22660;SDS011;11497;52.222;21.246;2023-06-22T14:37:02;29.90;;;10.93;;